Time;durP1;ratioP1;P1;durP2;ratioP2;P2;SDS_P1;SDS_P2;PMS_P1;PMS_P2;Temp;Humidity;BMP_temperature;BMP_pressure;BME280_temperature;BME280_humidity;BME280_pressure;Samples;Min_cycle;Max_cycle;Signal;HPM_P1;HPM_P2
2022/11/16 00:01:11;;;;;;;108.90;49.63;;;;;;;5.53;82.03;93676.63;5061952;28;20036;-79
2022/11/16 00:03:37;;;;;;;95.70;43.50;;;;;;;5.63;81.92;93673.81;5062117;28;20016;-79
2022/11/16 00:06:04;;;;;;;91.50;45.33;;;;;;;5.72;81.87;93674.00;5061936;28;20155;-79
2022/11/16 00:08:37;;;;;;;94.03;42.42;;;;;;;5.81;81.26;93666.97;5061823;28;20029;-80
2022/11/16 00:11:10;;;;;;;95.15;44.40;;;;;;;5.90;80.85;93663.66;5063898;28;20218;-80
2022/11/16 00:13:37;;;;;;;98.07;45.80;;;;;;;5.94;80.38;93664.66;5065568;28;20035;-80
2022/11/16 00:16:04;;;;;;;98.53;44.33;;;;;;;5.99;80.05;93672.56;5065612;28;20033;-80
2022/11/16 00:18:29;;;;;;;91.13;43.38;;;;;;;6.03;79.90;93663.75;5065697;28;20035;-80
2022/11/16 00:20:55;;;;;;;94.72;45.88;;;;;;;6.07;79.34;93655.25;5065837;28;20040;-80
2022/11/16 00:23:21;;;;;;;99.28;46.65;;;;;;;6.08;79.33;93662.88;5065721;28;20021;-80
2022/11/16 00:25:47;;;;;;;106.88;50.53;;;;;;;6.11;79.11;93649.09;5065391;28;20376;-80
2022/11/16 00:28:12;;;;;;;107.03;49.40;;;;;;;6.14;79.02;93653.78;5065456;28;20036;-80
2022/11/16 00:30:38;;;;;;;104.93;48.88;;;;;;;6.14;78.90;93659.06;5065426;28;20087;-80
2022/11/16 00:33:05;;;;;;;96.00;47.25;;;;;;;6.16;78.31;93662.22;5065318;28;20219;-80
2022/11/16 00:35:30;;;;;;;93.25;46.53;;;;;;;6.16;78.26;93662.22;5065047;28;20027;-80
2022/11/16 00:37:56;;;;;;;93.03;46.83;;;;;;;6.14;77.96;93648.50;5064691;28;20096;-80
2022/11/16 00:40:21;;;;;;;91.80;45.00;;;;;;;6.12;77.97;93650.63;5065335;28;20025;-80
2022/11/16 00:42:47;;;;;;;97.25;46.45;;;;;;;6.10;77.90;93647.50;5063982;28;20040;-80
2022/11/16 00:45:12;;;;;;;84.05;42.05;;;;;;;6.09;77.59;93643.28;5065303;28;20035;-80
2022/11/16 00:47:38;;;;;;;95.55;45.03;;;;;;;6.08;76.87;93652.28;5064952;28;20032;-80
2022/11/16 00:50:04;;;;;;;97.00;43.75;;;;;;;6.04;76.79;93640.72;5063999;28;20035;-80
2022/11/16 00:52:30;;;;;;;91.80;44.10;;;;;;;6.02;77.17;93637.56;5064908;28;20037;-80
2022/11/16 00:54:55;;;;;;;86.90;42.80;;;;;;;6.02;77.13;93638.38;5065106;28;20032;-81
2022/11/16 00:57:21;;;;;;;94.80;45.47;;;;;;;6.02;77.02;93640.22;5064713;28;20158;-78
2022/11/16 00:59:47;;;;;;;86.85;43.03;;;;;;;6.01;76.76;93630.72;5064865;28;20208;-78
2022/11/16 01:02:12;;;;;;;91.55;44.22;;;;;;;6.00;76.91;93634.44;5064824;28;20040;-78
2022/11/16 01:04:47;;;;;;;90.45;41.28;;;;;;;5.99;77.10;93619.66;5064991;28;20028;-78
2022/11/16 01:07:12;;;;;;;94.38;43.05;;;;;;;5.99;76.82;93617.78;5064618;28;20319;-78
2022/11/16 01:09:37;;;;;;;97.10;45.45;;;;;;;5.95;76.95;93608.06;5064721;28;20021;-78
2022/11/16 01:12:09;;;;;;;93.10;44.22;;;;;;;5.92;77.07;93608.63;5064504;28;20013;-78
2022/11/16 01:14:41;;;;;;;85.80;43.17;;;;;;;5.91;77.19;93610.47;5064419;28;20025;-78
2022/11/16 01:17:06;;;;;;;;;;;;;;;5.85;77.07;93595.75;5064991;28;20025;-78
2022/11/16 01:19:32;;;;;;;97.75;42.85;;;;;;;5.79;77.31;93600.34;5064549;28;19911;-78
2022/11/16 01:21:58;;;;;;;91.32;43.38;;;;;;;5.78;77.23;93592.69;5063683;28;20376;-78
2022/11/16 01:24:25;;;;;;;92.30;43.85;;;;;;;5.76;77.13;93608.88;5064503;28;20021;-78
2022/11/16 01:26:50;;;;;;;99.03;45.78;;;;;;;5.70;77.16;93603.94;5064369;28;20047;-78
2022/11/16 01:29:16;;;;;;;89.85;43.10;;;;;;;5.67;77.40;93601.88;5063161;28;20033;-78
2022/11/16 01:31:42;;;;;;;90.07;44.53;;;;;;;5.62;77.55;93600.09;5064193;28;20270;-78
2022/11/16 01:34:08;;;;;;;82.60;42.50;;;;;;;5.55;77.59;93611.03;5064014;28;20104;-78
2022/11/16 01:36:35;;;;;;;87.88;40.75;;;;;;;5.50;78.05;93602.41;5064073;28;20021;-78
2022/11/16 01:39:03;;;;;;;85.85;42.15;;;;;;;5.48;78.60;93607.19;5063933;28;20031;-78
2022/11/16 01:41:28;;;;;;;93.90;44.60;;;;;;;5.47;79.16;93600.31;5063951;28;20276;-78
2022/11/16 01:44:00;;;;;;;92.45;40.95;;;;;;;5.51;78.90;93606.59;5064135;28;20021;-78
2022/11/16 01:46:26;;;;;;;88.30;41.80;;;;;;;5.52;78.67;93602.91;5063709;28;20051;-78
2022/11/16 01:49:02;;;;;;;86.13;39.20;;;;;;;5.52;78.61;93601.03;5063909;28;20035;-80
2022/11/16 01:51:28;;;;;;;82.85;39.67;;;;;;;5.56;78.62;93593.31;5063873;28;20207;-78
2022/11/16 01:53:54;;;;;;;86.32;38.42;;;;;;;5.55;78.43;93581.94;5063913;28;20053;-78
2022/11/16 01:56:20;;;;;;;76.43;35.80;;;;;;;5.57;78.31;93581.66;5063643;28;20029;-79
2022/11/16 01:58:46;;;;;;;85.15;39.65;;;;;;;5.54;78.41;93577.75;5063533;28;20094;-79
2022/11/16 02:01:11;;;;;;;78.57;37.95;;;;;;;5.56;78.60;93580.88;5063563;28;20028;-78
2022/11/16 02:03:37;;;;;;;76.75;34.72;;;;;;;5.55;78.38;93581.16;5063426;28;20088;-78
2022/11/16 02:06:18;;;;;;;75.05;35.58;;;;;;;5.53;77.79;93568.22;5063341;28;20028;-78
2022/11/16 02:11:58;;;;;;;106.63;47.15;;;;;;;5.41;78.02;93583.75;5063353;28;20377;-78
2022/11/16 02:14:38;;;;;;;79.53;40.22;;;;;;;5.40;78.40;93572.38;5063412;28;20231;-78
2022/11/16 02:17:19;;;;;;;88.47;42.60;;;;;;;5.39;78.12;93562.09;5063314;28;20031;-78
2022/11/16 02:20:10;;;;;;;85.38;42.53;;;;;;;5.38;77.87;93574.53;5063276;28;20368;-78
2022/11/16 02:23:10;;;;;;;89.90;42.50;;;;;;;5.36;77.79;93566.09;5063155;28;20353;-78
2022/11/16 02:25:51;;;;;;;84.18;40.97;;;;;;;5.37;77.71;93561.59;5062966;28;20184;-79
2022/11/16 02:28:37;;;;;;;97.60;46.30;;;;;;;5.34;77.69;93567.47;5063006;28;20033;-78
2022/11/16 02:31:06;;;;;;;98.47;46.63;;;;;;;5.29;77.83;93567.53;5062925;28;20024;-78
2022/11/16 02:33:37;;;;;;;96.10;44.45;;;;;;;5.27;77.82;93552.00;5062992;28;20036;-78
2022/11/16 02:36:06;;;;;;;104.55;48.30;;;;;;;5.26;77.73;93560.97;5063007;28;20025;-78
2022/11/16 02:38:37;;;;;;;106.03;48.30;;;;;;;5.24;77.87;93563.13;5062853;28;20029;-80
2022/11/16 02:41:10;;;;;;;107.18;50.58;;;;;;;5.23;77.95;93558.88;5063095;28;20032;-78
2022/11/16 02:43:44;;;;;;;97.20;46.67;;;;;;;5.19;77.53;93553.41;5062746;28;20017;-78
2022/11/16 02:46:18;;;;;;;103.25;49.28;;;;;;;5.13;77.19;93549.28;5062786;28;20040;-78
2022/11/16 02:48:49;;;;;;;104.45;50.33;;;;;;;5.07;77.35;93560.19;5062815;28;20068;-80
2022/11/16 02:51:16;;;;;;;102.90;51.00;;;;;;;5.05;77.43;93546.47;5062703;28;20013;-78
2022/11/16 02:54:11;;;;;;;98.82;46.00;;;;;;;4.99;77.46;93541.28;5062660;28;20021;-77
2022/11/16 02:56:55;;;;;;;87.07;43.25;;;;;;;4.93;76.96;93562.75;5062719;28;20035;-78
2022/11/16 02:59:24;;;;;;;112.63;54.53;;;;;;;4.66;78.44;93558.06;5062595;28;20064;-78
2022/11/16 03:02:18;;;;;;;123.28;56.70;;;;;;;4.62;78.42;93545.44;5062771;28;20074;-78
2022/11/16 03:04:49;;;;;;;115.60;53.28;;;;;;;4.57;78.57;93550.78;5062366;28;20021;-78
2022/11/16 03:07:20;;;;;;;135.90;62.83;;;;;;;4.59;78.48;93553.13;5062705;28;20021;-80
2022/11/16 03:09:48;;;;;;;125.70;58.70;;;;;;;4.56;78.69;93546.56;5062626;28;20100;-78
2022/11/16 03:12:17;;;;;;;120.30;54.92;;;;;;;4.57;78.59;93540.22;5062396;28;20100;-76
2022/11/16 03:14:48;;;;;;;116.35;54.03;;;;;;;4.57;78.50;93537.56;5062249;28;20024;-78
2022/11/16 03:17:42;;;;;;;108.18;51.45;;;;;;;4.62;78.18;93537.53;5062525;28;20090;-78
2022/11/16 03:20:19;;;;;;;109.90;52.67;;;;;;;4.61;77.90;93529.88;5057415;28;20224;-78
2022/11/16 03:22:48;;;;;;;101.40;52.47;;;;;;;4.59;77.57;93532.81;5061281;28;20312;-79
2022/11/16 03:25:18;;;;;;;119.63;54.90;;;;;;;4.60;77.68;93533.59;5062223;28;20017;-79
2022/11/16 03:27:52;;;;;;;112.97;53.40;;;;;;;4.56;77.37;93533.38;5062302;28;20021;-79
2022/11/16 03:30:24;;;;;;;100.85;49.72;;;;;;;4.57;77.09;93531.53;5062310;28;20025;-78
2022/11/16 03:33:15;;;;;;;103.28;49.55;;;;;;;4.58;77.42;93530.44;5062240;28;20075;-79
2022/11/16 03:35:45;;;;;;;111.63;55.80;;;;;;;4.56;77.11;93538.66;5062283;28;20025;-79
2022/11/16 03:38:14;;;;;;;116.28;54.30;;;;;;;4.51;76.76;93528.16;5062372;28;20040;-82
2022/11/16 03:40:42;;;;;;;117.03;56.25;;;;;;;4.42;76.64;93535.13;5061029;28;20021;-82
2022/11/16 03:43:09;;;;;;;114.07;53.67;;;;;;;4.36;77.07;93528.34;5062123;28;20021;-80
2022/11/16 03:45:35;;;;;;;114.20;54.55;;;;;;;4.27;77.23;93541.34;5063380;28;20089;-79
2022/11/16 03:48:00;;;;;;;120.18;57.20;;;;;;;4.20;77.50;93525.09;5066101;28;20025;-79
2022/11/16 03:50:26;;;;;;;128.80;59.00;;;;;;;4.19;77.77;93531.41;5066179;28;20070;-79
2022/11/16 03:52:52;;;;;;;124.47;59.97;;;;;;;4.15;78.05;93531.22;5066142;28;20033;-79
2022/11/16 03:55:17;;;;;;;126.18;58.58;;;;;;;4.11;78.16;93532.03;5066020;28;20020;-79
2022/11/16 03:57:43;;;;;;;114.40;57.28;;;;;;;4.06;78.23;93527.59;5065893;28;20068;-80
2022/11/16 04:00:09;;;;;;;113.32;58.00;;;;;;;4.06;78.48;93527.59;5064651;28;20025;-80
2022/11/16 04:02:35;;;;;;;114.82;57.30;;;;;;;4.04;78.47;93532.38;5065720;28;20079;-80
2022/11/16 04:24:21;;;;;;;151.38;61.83;;;;;;;4.04;78.82;93494.69;5065526;28;20032;-80
2022/11/16 04:29:40;;;;;;;128.52;56.17;;;;;;;4.10;79.04;93488.28;5065344;28;20023;-80
2022/11/16 04:37:51;;;;;;;117.63;54.38;;;;;;;4.09;78.62;93489.34;5065232;28;20027;-78
2022/11/16 04:40:26;;;;;;;133.05;56.67;;;;;;;4.13;79.36;93492.97;5065256;28;20035;-78
2022/11/16 04:42:53;;;;;;;134.85;57.85;;;;;;;4.13;78.93;93498.25;5065162;28;20098;-78
2022/11/16 04:48:04;;;;;;;133.90;56.17;;;;;;;4.10;79.58;93494.34;5065157;28;20031;-78
2022/11/16 04:50:30;;;;;;;129.63;56.53;;;;;;;4.16;79.92;93490.56;5064930;28;20336;-79
2022/11/16 04:52:55;;;;;;;147.35;62.65;;;;;;;4.20;79.96;93490.81;5065178;28;20056;-78
2022/11/16 04:55:21;;;;;;;142.35;62.83;;;;;;;4.21;79.80;93479.16;5064925;28;20272;-78
2022/11/16 04:57:46;;;;;;;151.98;64.72;;;;;;;4.31;79.54;93481.69;5063682;28;20049;-78
2022/11/16 05:00:12;;;;;;;156.88;61.72;;;;;;;4.32;79.01;93483.25;5064786;28;20025;-78
2022/11/16 05:02:38;;;;;;;142.68;62.53;;;;;;;4.36;78.99;93491.41;5064739;28;20028;-78
2022/11/16 05:05:04;;;;;;;133.38;58.28;;;;;;;4.29;78.34;93490.94;5064779;28;20327;-78
2022/11/16 05:07:29;;;;;;;136.23;59.75;;;;;;;4.27;78.97;93495.72;5063351;28;20021;-78
2022/11/16 05:09:55;;;;;;;125.72;58.13;;;;;;;4.21;78.75;93479.16;5064834;28;20092;-78
2022/11/16 05:12:23;;;;;;;128.50;57.78;;;;;;;4.17;79.22;93489.53;5064519;28;20079;-78
2022/11/16 05:14:48;;;;;;;125.13;57.53;;;;;;;4.16;79.31;93484.50;5064538;28;20025;-78
2022/11/16 05:17:14;;;;;;;126.28;57.65;;;;;;;4.11;79.01;93490.66;5064504;28;20051;-80
2022/11/16 05:22:25;;;;;;;157.25;64.30;;;;;;;4.02;80.27;93485.19;5064724;28;20350;-78
2022/11/16 05:24:51;;;;;;;137.40;63.40;;;;;;;4.06;80.75;93480.13;5064656;28;20186;-78
2022/11/16 05:27:19;;;;;;;149.00;65.63;;;;;;;4.15;80.88;93475.81;5064313;28;20021;-78
2022/11/16 05:29:45;;;;;;;153.43;64.90;;;;;;;4.27;81.10;93483.31;5064285;28;20027;-78
2022/11/16 05:32:11;;;;;;;141.40;61.80;;;;;;;4.36;80.66;93475.56;5064276;28;20103;-78
2022/11/16 05:34:38;;;;;;;139.40;60.78;;;;;;;4.37;80.06;93472.63;5063988;28;20207;-78
2022/11/16 05:37:04;;;;;;;141.65;61.05;;;;;;;4.42;80.10;93474.44;5064193;28;20051;-78
2022/11/16 05:39:29;;;;;;;133.98;59.22;;;;;;;4.47;80.16;93474.38;5063988;28;20048;-77
2022/11/16 05:41:55;;;;;;;133.48;62.47;;;;;;;4.51;80.35;93479.88;5063986;28;20223;-78
2022/11/16 05:44:21;;;;;;;124.40;56.83;;;;;;;4.51;80.09;93470.09;5064119;28;20282;-77
2022/11/16 05:46:47;;;;;;;142.70;61.42;;;;;;;4.52;80.48;93479.59;5063907;28;20021;-78
2022/11/16 05:49:13;;;;;;;119.43;56.85;;;;;;;4.52;79.99;93482.22;5063854;28;20021;-80
2022/11/16 05:51:40;;;;;;;140.30;64.25;;;;;;;4.55;79.47;93483.50;5063556;28;20024;-78
2022/11/16 05:54:06;;;;;;;121.25;57.38;;;;;;;4.55;79.26;93479.00;5063730;28;20052;-78
2022/11/16 05:56:33;;;;;;;128.57;55.28;;;;;;;4.51;79.50;93480.66;5064009;28;20029;-78
2022/11/16 05:58:59;;;;;;;128.02;59.20;;;;;;;4.53;79.86;93481.16;5063520;28;20040;-78
2022/11/16 06:01:25;;;;;;;131.10;59.70;;;;;;;4.53;79.77;93475.88;5063563;28;20027;-78
2022/11/16 06:03:51;;;;;;;144.93;59.05;;;;;;;4.63;79.78;93477.59;5063648;28;20309;-78
2022/11/16 06:06:17;;;;;;;134.52;56.17;;;;;;;4.71;79.77;93481.44;5063702;28;20315;-81
2022/11/16 06:08:43;;;;;;;123.07;57.60;;;;;;;4.70;80.51;93485.97;5063066;28;20023;-84
2022/11/16 06:11:09;;;;;;;141.88;59.55;;;;;;;4.77;80.16;93491.66;5063391;28;20095;-82
2022/11/16 06:13:35;;;;;;;130.75;58.83;;;;;;;4.83;79.76;93481.81;5062215;28;20025;-81
2022/11/16 06:16:02;;;;;;;121.32;57.33;;;;;;;4.91;79.53;93496.22;5061842;28;20342;-81
2022/11/16 06:18:27;;;;;;;122.20;56.45;;;;;;;4.95;79.23;93487.44;5063350;28;20020;-80
2022/11/16 06:20:53;;;;;;;121.53;54.47;;;;;;;5.02;79.27;93490.50;5063502;28;20202;-79
2022/11/16 06:23:19;;;;;;;110.68;52.92;;;;;;;5.13;78.59;93488.50;5062146;28;20012;-80
2022/11/16 06:25:44;;;;;;;114.43;50.72;;;;;;;5.17;78.00;93472.84;5061500;28;20020;-81
2022/11/16 06:28:10;;;;;;;118.25;56.45;;;;;;;5.18;77.87;93485.78;5061422;28;20025;-80
2022/11/16 06:30:38;;;;;;;117.85;52.33;;;;;;;5.25;77.75;93480.16;5061509;28;20083;-80
2022/11/16 06:33:04;;;;;;;113.45;53.15;;;;;;;5.30;77.85;93485.34;5061372;28;20013;-80
2022/11/16 06:35:29;;;;;;;106.65;51.45;;;;;;;5.39;77.94;93475.69;5061271;28;20031;-80
2022/11/16 06:37:57;;;;;;;103.07;51.53;;;;;;;5.52;77.51;93486.59;5061582;28;20040;-80
2022/11/16 06:40:22;;;;;;;111.55;50.85;;;;;;;5.61;77.54;93479.53;5062894;28;20009;-81
2022/11/16 06:42:48;;;;;;;100.53;47.17;;;;;;;5.71;77.32;93470.66;5063045;28;20025;-81
2022/11/16 06:45:13;;;;;;;112.88;49.85;;;;;;;5.80;77.41;93474.97;5062751;28;20024;-80
2022/11/16 06:47:39;;;;;;;118.05;51.60;;;;;;;5.92;77.44;93476.34;5062857;28;20020;-81
2022/11/16 06:50:04;;;;;;;113.72;50.38;;;;;;;5.93;76.98;93470.00;5062803;28;20023;-80
2022/11/16 06:52:30;;;;;;;117.72;52.20;;;;;;;6.02;76.95;93481.47;5062501;28;20051;-82
2022/11/16 06:54:56;;;;;;;111.85;47.72;;;;;;;6.01;76.72;93474.63;5062749;28;20025;-81
2022/11/16 06:57:21;;;;;;;104.93;48.08;;;;;;;6.12;76.79;93469.94;5062763;28;20024;-80
2022/11/16 06:59:47;;;;;;;100.25;44.67;;;;;;;6.22;77.33;93481.09;5062674;28;20016;-79
2022/11/16 07:02:12;;;;;;;95.47;44.97;;;;;;;6.29;77.23;93461.38;5062540;28;20368;-79
2022/11/16 07:04:37;;;;;;;98.25;44.97;;;;;;;6.32;76.61;93485.41;5062761;28;20031;-79
2022/11/16 07:07:03;;;;;;;99.72;43.22;;;;;;;6.23;76.23;93477.38;5062895;28;20055;-80
2022/11/16 07:09:29;;;;;;;94.68;43.47;;;;;;;6.13;76.56;93474.94;5062552;28;20347;-78
2022/11/16 07:11:54;;;;;;;94.32;46.22;;;;;;;6.12;76.56;93470.72;5062840;28;20059;-77
2022/11/16 07:14:20;;;;;;;91.32;41.72;;;;;;;6.12;77.58;93451.41;5062478;28;20086;-78
2022/11/16 07:16:45;;;;;;;97.20;43.17;;;;;;;6.11;77.39;93466.50;5062420;28;20040;-78
2022/11/16 07:19:11;;;;;;;102.32;44.03;;;;;;;6.12;76.87;93468.06;5062405;28;20255;-78
2022/11/16 07:21:37;;;;;;;96.22;44.72;;;;;;;6.15;76.84;93475.41;5061949;28;20025;-78
2022/11/16 07:24:03;;;;;;;91.88;45.58;;;;;;;6.08;77.14;93464.44;5062463;28;20200;-78
2022/11/16 07:26:31;;;;;;;99.53;45.45;;;;;;;6.15;77.39;93474.66;5062875;28;20021;-87
2022/11/16 07:29:00;;;;;;;90.90;44.38;;;;;;;6.20;77.05;93464.72;5064432;28;20104;-87
2022/11/16 07:31:26;;;;;;;100.90;44.17;;;;;;;6.32;76.60;93460.81;5062767;28;20020;-86
2022/11/16 07:33:52;;;;;;;95.85;43.90;;;;;;;6.34;76.10;93463.94;5061988;28;20342;-86
2022/11/16 07:36:18;;;;;;;99.15;45.05;;;;;;;6.37;76.51;93463.34;5062604;28;20032;-86
2022/11/16 07:38:44;;;;;;;108.53;44.15;;;;;;;6.47;76.35;93455.19;5061048;28;20025;-86
2022/11/16 07:41:16;;;;;;;116.65;45.78;;;;;;;6.56;76.53;93461.38;5062311;28;20219;-86
2022/11/16 07:43:42;;;;;;;108.25;45.03;;;;;;;6.56;76.04;93453.41;5061162;28;20040;-86
2022/11/16 07:46:17;;;;;;;116.57;47.90;;;;;;;6.65;76.37;93456.16;5062620;28;20319;-88
2022/11/16 07:48:45;;;;;;;114.07;49.28;;;;;;;6.79;76.63;93453.47;5063155;28;20070;-89
2022/11/16 07:51:16;;;;;;;112.38;47.03;;;;;;;6.90;76.54;93454.00;5062645;28;20127;-89
2022/11/16 07:53:42;;;;;;;116.10;47.58;;;;;;;7.03;76.26;93446.03;5062564;28;20040;-88
2022/11/16 07:56:09;;;;;;;117.60;48.28;;;;;;;7.18;75.90;93449.41;5062532;28;20032;-87
2022/11/16 07:58:35;;;;;;;113.80;44.58;;;;;;;7.34;75.34;93445.28;5062470;28;20067;-89
2022/11/16 08:01:03;;;;;;;115.20;45.70;;;;;;;7.48;74.92;93452.41;5062734;28;20345;-88
2022/11/16 08:03:30;;;;;;;105.30;43.05;;;;;;;7.57;75.06;93447.94;5062830;28;20023;-88
2022/11/16 08:06:04;;;;;;;105.85;42.22;;;;;;;7.71;74.92;93453.94;5062742;28;20021;-88
2022/11/16 08:08:30;;;;;;;111.63;42.45;;;;;;;7.79;75.15;93447.88;5061422;28;20048;-88
2022/11/16 08:11:03;;;;;;;118.53;40.08;;;;;;;7.88;75.22;93449.81;5062677;28;20302;-87
2022/11/16 08:13:32;;;;;;;119.68;39.50;;;;;;;7.95;75.29;93442.19;5062581;28;20064;-88
2022/11/16 08:16:06;;;;;;;95.75;36.33;;;;;;;8.01;75.60;93433.00;5062585;28;20291;-87
2022/11/16 08:18:32;;;;;;;111.35;37.60;;;;;;;8.12;75.45;93433.50;5062147;28;20033;-86
2022/11/16 08:20:58;;;;;;;99.90;35.72;;;;;;;8.16;75.31;93427.28;5062457;28;20092;-88
2022/11/16 08:23:24;;;;;;;88.63;34.08;;;;;;;8.18;75.37;93425.09;5062703;28;20196;-87
2022/11/16 08:25:50;;;;;;;84.07;32.75;;;;;;;8.20;75.82;93419.47;5062194;28;20029;-87
2022/11/16 08:28:16;;;;;;;83.80;31.80;;;;;;;8.21;75.54;93416.50;5061006;28;20052;-87
2022/11/16 08:30:41;;;;;;;84.60;33.58;;;;;;;8.29;75.42;93424.81;5062407;28;20032;-88
2022/11/16 08:33:08;;;;;;;92.00;32.13;;;;;;;8.33;75.12;93421.25;5065818;28;20319;-88
2022/11/16 08:35:34;;;;;;;72.38;31.58;;;;;;;8.38;75.14;93420.31;5065800;28;20035;-89
2022/11/16 08:38:00;;;;;;;74.72;32.13;;;;;;;8.46;74.95;93414.25;5065928;28;20040;-88
2022/11/16 08:40:26;;;;;;;76.72;30.52;;;;;;;8.56;74.83;93421.16;5064763;28;20025;-88
2022/11/16 08:42:55;;;;;;;77.78;32.08;;;;;;;8.61;74.77;93416.47;5065696;28;20035;-88
2022/11/16 08:45:22;;;;;;;68.00;30.80;;;;;;;8.63;74.07;93406.31;5065859;28;20029;-88
2022/11/16 08:47:47;;;;;;;64.45;30.13;;;;;;;8.66;73.72;93412.88;5065747;28;20139;-88
2022/11/16 08:50:14;;;;;;;75.70;29.63;;;;;;;8.67;73.20;93406.47;5065714;28;20029;-88
2022/11/16 08:52:40;;;;;;;77.15;28.13;;;;;;;8.64;73.33;93409.75;5064526;28;20243;-89
2022/11/16 08:55:06;;;;;;;65.85;29.60;;;;;;;8.61;73.36;93408.50;5065581;28;20051;-88
2022/11/16 08:57:31;;;;;;;73.63;30.30;;;;;;;8.61;73.31;93407.72;5065099;28;20343;-88
2022/11/16 08:59:57;;;;;;;67.85;28.65;;;;;;;8.63;73.41;93402.88;5065648;28;20115;-88
2022/11/16 09:02:24;;;;;;;65.03;27.10;;;;;;;8.63;73.39;93403.66;5065402;28;20027;-88
2022/11/16 09:04:51;;;;;;;65.88;27.88;;;;;;;8.59;73.54;93407.25;5065200;28;20314;-87
2022/11/16 09:07:17;;;;;;;63.22;27.58;;;;;;;8.57;73.66;93404.13;5065239;28;20043;-88
2022/11/16 09:09:43;;;;;;;60.13;25.50;;;;;;;8.55;73.56;93404.44;5064022;28;20052;-88
2022/11/16 09:12:08;;;;;;;61.95;25.30;;;;;;;8.58;73.67;93405.69;5063825;28;20051;-87
2022/11/16 09:14:34;;;;;;;61.45;26.20;;;;;;;8.61;73.75;93397.88;5064839;28;20036;-87
2022/11/16 09:16:59;;;;;;;58.67;25.10;;;;;;;8.64;73.62;93399.91;5064934;28;20205;-87
2022/11/16 09:19:24;;;;;;;51.67;24.80;;;;;;;8.67;73.86;93392.41;5065155;28;20021;-87
2022/11/16 09:21:50;;;;;;;50.08;23.70;;;;;;;8.70;73.70;93399.75;5064671;28;20024;-88
2022/11/16 09:24:16;;;;;;;57.47;24.88;;;;;;;8.77;73.56;93381.47;5064884;28;20227;-87
2022/11/16 09:26:41;;;;;;;51.55;24.33;;;;;;;8.80;73.57;93367.56;5063780;28;20020;-87
2022/11/16 09:29:11;;;;;;;54.00;25.50;;;;;;;8.90;73.71;93372.56;5064517;28;20025;-86
2022/11/16 09:31:37;;;;;;;44.67;21.88;;;;;;;9.01;73.25;93362.38;5064768;28;20096;-87
2022/11/16 09:34:02;;;;;;;44.60;23.20;;;;;;;9.13;72.78;93367.84;5064468;28;20028;-89
2022/11/16 09:36:28;;;;;;;47.90;24.02;;;;;;;9.26;72.60;93338.72;5065096;28;20254;-86
2022/11/16 09:38:53;;;;;;;47.83;22.92;;;;;;;9.38;71.90;93342.28;5064665;28;20058;-85
2022/11/16 09:41:35;;;;;;;45.13;20.38;;;;;;;9.50;70.65;93338.94;5064383;28;20099;-86
2022/11/16 09:44:34;;;;;;;43.97;22.37;;;;;;;9.58;70.48;93326.72;5063825;28;20025;-86
2022/11/16 09:47:01;;;;;;;45.70;22.20;;;;;;;9.60;70.26;93332.50;5063808;28;20023;-86
2022/11/16 09:49:39;;;;;;;43.97;22.42;;;;;;;9.58;70.28;93334.72;5064320;28;20318;-85
2022/11/16 09:52:10;;;;;;;47.78;21.88;;;;;;;9.55;69.97;93341.44;5064126;28;20020;-86
2022/11/16 09:54:41;;;;;;;49.53;23.48;;;;;;;9.51;70.26;93334.44;5063891;28;20035;-86
2022/11/16 09:57:10;;;;;;;53.05;24.00;;;;;;;9.51;70.26;93323.78;5062939;28;20100;-86
2022/11/16 09:59:35;;;;;;;54.80;25.08;;;;;;;9.58;70.44;93324.06;5063938;28;20025;-85
2022/11/16 10:02:20;;;;;;;52.65;27.38;;;;;;;9.67;70.65;93321.34;5063999;28;20032;-85
2022/11/16 10:04:58;;;;;;;57.90;27.55;;;;;;;9.69;70.68;93305.84;5063949;28;20021;-85
2022/11/16 10:07:45;;;;;;;49.72;25.23;;;;;;;9.82;70.36;93302.19;5062954;28;20135;-86
2022/11/16 10:10:33;;;;;;;42.58;23.75;;;;;;;9.90;69.94;93309.34;5063574;28;20318;-85
2022/11/16 10:13:30;;;;;;;54.95;27.10;;;;;;;10.05;69.51;93292.03;5063619;28;20023;-84
2022/11/16 10:16:11;;;;;;;53.10;23.30;;;;;;;10.11;69.28;93285.41;5063822;28;20275;-86
2022/11/16 10:19:00;;;;;;;50.70;26.23;;;;;;;10.24;68.66;93278.31;5063782;28;20028;-85
2022/11/16 10:21:37;;;;;;;50.35;24.15;;;;;;;10.34;68.04;93274.47;5063665;28;20044;-86
2022/11/16 10:24:21;;;;;;;47.30;24.48;;;;;;;10.37;67.82;93274.63;5062251;28;20132;-84
2022/11/16 10:27:26;;;;;;;43.20;23.50;;;;;;;10.46;68.01;93258.56;5063478;28;20055;-86
2022/11/16 10:30:08;;;;;;;42.33;21.80;;;;;;;10.52;67.65;93259.94;5063604;28;20032;-85
2022/11/16 10:32:39;;;;;;;47.97;23.17;;;;;;;10.57;67.37;93259.72;5063167;28;20025;-85
2022/11/16 10:35:32;;;;;;;43.58;21.85;;;;;;;10.58;67.57;93250.63;5063260;28;20200;-85
2022/11/16 10:38:01;;;;;;;44.90;22.90;;;;;;;10.60;66.80;93255.63;5088241;28;20377;-85
2022/11/16 10:40:36;;;;;;;48.47;24.35;;;;;;;10.60;67.26;93245.75;5063171;28;20032;-80
2022/11/16 10:43:16;;;;;;;52.13;24.85;;;;;;;10.57;67.40;93246.41;5063152;28;20021;-83
2022/11/16 10:45:56;;;;;;;46.60;24.67;;;;;;;10.60;67.56;93248.41;5063006;28;20021;-83
2022/11/16 10:48:47;;;;;;;48.75;23.73;;;;;;;10.68;67.39;93246.75;5062836;28;20024;-83
2022/11/16 10:51:13;;;;;;;47.40;24.25;;;;;;;10.76;66.98;93253.13;5060992;28;20025;-83
2022/11/16 10:53:41;;;;;;;57.15;25.33;;;;;;;10.81;67.01;93244.94;5059898;28;20035;-84
2022/11/16 10:56:18;;;;;;;47.95;23.85;;;;;;;10.92;67.03;93245.28;5060467;28;20254;-85
2022/11/16 10:58:54;;;;;;;45.35;22.13;;;;;;;11.02;66.49;93228.88;5061005;28;20116;-84
2022/11/16 11:01:32;;;;;;;46.20;22.80;;;;;;;11.17;66.30;93224.78;5059811;28;20029;-84
2022/11/16 11:04:30;;;;;;;53.67;25.20;;;;;;;11.43;65.99;93217.22;5061557;28;20304;-84
2022/11/16 11:07:23;;;;;;;56.97;25.70;;;;;;;11.61;64.76;93212.44;5061189;28;20055;-84
2022/11/16 11:09:52;;;;;;;54.63;27.15;;;;;;;11.76;64.33;93208.31;5061082;28;20150;-84
2022/11/16 11:12:38;;;;;;;67.82;29.20;;;;;;;11.98;63.58;93203.66;5061085;28;20039;-84
2022/11/16 11:15:14;;;;;;;52.72;26.65;;;;;;;12.21;63.05;93204.72;5061344;28;20017;-85
2022/11/16 11:17:42;;;;;;;51.05;25.58;;;;;;;12.38;62.36;93192.94;5061337;28;20283;-84
2022/11/16 11:20:13;;;;;;;54.25;24.98;;;;;;;12.52;61.82;93184.56;5061415;28;20278;-85
2022/11/16 11:22:56;;;;;;;46.70;22.38;;;;;;;12.71;61.11;93183.13;5062466;28;20219;-84
2022/11/16 11:25:32;;;;;;;44.78;23.15;;;;;;;12.78;60.31;93180.63;5062634;28;20036;-83
2022/11/16 11:28:30;;;;;;;48.00;24.38;;;;;;;12.90;60.11;93175.19;5061448;28;20025;-85
2022/11/16 11:31:07;;;;;;;40.85;23.00;;;;;;;13.01;59.41;93173.59;5062838;28;20020;-83
2022/11/16 11:33:41;;;;;;;45.22;23.92;;;;;;;13.11;59.18;93166.16;5062411;28;20029;-85
2022/11/16 11:36:21;;;;;;;58.42;26.73;;;;;;;13.20;59.27;93158.72;5062417;28;20075;-84
2022/11/16 11:39:03;;;;;;;41.33;22.65;;;;;;;13.37;58.75;93165.66;5062452;28;20024;-83
2022/11/16 11:41:33;;;;;;;47.75;24.77;;;;;;;13.50;58.55;93161.75;5062243;28;20021;-83
2022/11/16 11:44:02;;;;;;;58.65;25.42;;;;;;;13.60;57.89;93160.47;5062389;28;20027;-75
2022/11/16 11:46:31;;;;;;;46.65;23.90;;;;;;;13.68;57.34;93156.81;5062468;28;20025;-75
2022/11/16 11:49:07;;;;;;;46.65;24.40;;;;;;;13.71;56.96;93168.72;5062305;28;20369;-75
2022/11/16 11:51:38;;;;;;;48.92;25.23;;;;;;;13.67;56.68;93139.19;5062299;28;20219;-74
2022/11/16 11:54:06;;;;;;;52.67;25.75;;;;;;;13.68;56.91;93135.38;5062068;28;20226;-74
2022/11/16 11:56:32;;;;;;;49.17;26.27;;;;;;;13.65;57.22;93141.44;5062240;28;20054;-74
2022/11/16 11:58:59;;;;;;;51.67;25.55;;;;;;;13.61;57.58;93125.28;5062007;28;20053;-74
2022/11/16 12:01:52;;;;;;;42.50;24.73;;;;;;;13.62;57.68;93134.09;5062245;28;20028;-74
2022/11/16 12:05:02;;;;;;;59.97;26.33;;;;;;;13.59;57.86;93119.50;5062241;28;20048;-74
2022/11/16 12:07:56;;;;;;;49.97;23.42;;;;;;;13.56;58.06;93124.78;5049029;28;20037;-74
2022/11/16 12:10:34;;;;;;;48.15;24.92;;;;;;;13.59;57.74;93124.84;5065527;28;20061;-75
2022/11/16 12:13:27;;;;;;;49.95;26.15;;;;;;;13.56;57.71;93117.53;5065783;28;20029;-74